sensor_id;sensor_type;location;lat;lon;timestamp;P1;durP1;ratioP1;P2;durP2;ratioP2
53287;SDS011;39172;45.550;12.072;2023-05-31T00:02:17;4.28;;;3.25;;
53287;SDS011;39172;45.550;12.072;2023-05-31T00:08:17;3.65;;;2.90;;
53287;SDS011;39172;45.550;12.072;2023-05-31T00:14:18;4.28;;;3.30;;
53287;SDS011;39172;45.550;12.072;2023-05-31T00:20:20;3.45;;;2.92;;
53287;SDS011;39172;45.550;12.072;2023-05-31T00:26:21;3.65;;;2.90;;
53287;SDS011;39172;45.550;12.072;2023-05-31T00:32:23;3.78;;;3.17;;
53287;SDS011;39172;45.550;12.072;2023-05-31T00:38:24;3.40;;;2.80;;
53287;SDS011;39172;45.550;12.072;2023-05-31T00:44:24;3.20;;;2.70;;
53287;SDS011;39172;45.550;12.072;2023-05-31T00:50:25;4.40;;;2.97;;
53287;SDS011;39172;45.550;12.072;2023-05-31T00:56:27;3.40;;;3.00;;
53287;SDS011;39172;45.550;12.072;2023-05-31T01:02:28;5.20;;;3.15;;
53287;SDS011;39172;45.550;12.072;2023-05-31T01:08:33;3.30;;;2.70;;
53287;SDS011;39172;45.550;12.072;2023-05-31T01:20:53;3.47;;;2.83;;
53287;SDS011;39172;45.550;12.072;2023-05-31T01:26:57;2.97;;;2.67;;
53287;SDS011;39172;45.550;12.072;2023-05-31T01:33:01;3.05;;;2.58;;
53287;SDS011;39172;45.550;12.072;2023-05-31T01:39:03;4.47;;;2.80;;
53287;SDS011;39172;45.550;12.072;2023-05-31T01:45:05;2.85;;;2.58;;
53287;SDS011;39172;45.550;12.072;2023-05-31T01:51:07;2.45;;;2.25;;
53287;SDS011;39172;45.550;12.072;2023-05-31T01:57:10;3.03;;;2.60;;
53287;SDS011;39172;45.550;12.072;2023-05-31T02:03:13;3.05;;;2.55;;
53287;SDS011;39172;45.550;12.072;2023-05-31T02:09:14;3.00;;;2.50;;
53287;SDS011;39172;45.550;12.072;2023-05-31T02:15:16;3.90;;;2.65;;
53287;SDS011;39172;45.550;12.072;2023-05-31T02:21:19;4.03;;;2.97;;
53287;SDS011;39172;45.550;12.072;2023-05-31T02:27:20;3.28;;;2.53;;
53287;SDS011;39172;45.550;12.072;2023-05-31T02:33:21;2.60;;;2.33;;
53287;SDS011;39172;45.550;12.072;2023-05-31T02:39:23;3.00;;;2.70;;
53287;SDS011;39172;45.550;12.072;2023-05-31T02:45:24;3.00;;;2.60;;
53287;SDS011;39172;45.550;12.072;2023-05-31T02:51:26;3.13;;;2.63;;
53287;SDS011;39172;45.550;12.072;2023-05-31T02:57:35;3.42;;;2.53;;
53287;SDS011;39172;45.550;12.072;2023-05-31T03:03:36;3.50;;;2.70;;
53287;SDS011;39172;45.550;12.072;2023-05-31T03:09:46;2.40;;;2.20;;
53287;SDS011;39172;45.550;12.072;2023-05-31T03:15:50;2.50;;;2.22;;
53287;SDS011;39172;45.550;12.072;2023-05-31T03:21:51;2.67;;;2.45;;
53287;SDS011;39172;45.550;12.072;2023-05-31T03:27:52;3.38;;;2.53;;
53287;SDS011;39172;45.550;12.072;2023-05-31T03:33:53;2.80;;;2.42;;
53287;SDS011;39172;45.550;12.072;2023-05-31T03:39:54;2.80;;;2.50;;
53287;SDS011;39172;45.550;12.072;2023-05-31T03:52:04;3.20;;;2.40;;
53287;SDS011;39172;45.550;12.072;2023-05-31T03:58:05;2.35;;;2.10;;
53287;SDS011;39172;45.550;12.072;2023-05-31T04:04:08;3.15;;;2.55;;
53287;SDS011;39172;45.550;12.072;2023-05-31T04:10:09;3.90;;;2.70;;
53287;SDS011;39172;45.550;12.072;2023-05-31T04:16:10;2.55;;;2.15;;
53287;SDS011;39172;45.550;12.072;2023-05-31T04:22:11;2.80;;;2.42;;
53287;SDS011;39172;45.550;12.072;2023-05-31T04:28:13;2.70;;;2.35;;
53287;SDS011;39172;45.550;12.072;2023-05-31T04:34:16;2.38;;;2.10;;
53287;SDS011;39172;45.550;12.072;2023-05-31T04:40:20;3.22;;;2.58;;
53287;SDS011;39172;45.550;12.072;2023-05-31T04:46:24;2.67;;;2.20;;
53287;SDS011;39172;45.550;12.072;2023-05-31T04:52:27;2.92;;;2.50;;
53287;SDS011;39172;45.550;12.072;2023-05-31T04:58:30;2.80;;;2.50;;
53287;SDS011;39172;45.550;12.072;2023-05-31T05:04:31;3.63;;;2.80;;
53287;SDS011;39172;45.550;12.072;2023-05-31T05:10:33;3.35;;;2.50;;
53287;SDS011;39172;45.550;12.072;2023-05-31T05:16:34;3.70;;;2.30;;
53287;SDS011;39172;45.550;12.072;2023-05-31T05:22:35;3.20;;;2.60;;
53287;SDS011;39172;45.550;12.072;2023-05-31T05:28:36;3.17;;;2.50;;
53287;SDS011;39172;45.550;12.072;2023-05-31T05:34:37;3.60;;;2.95;;
53287;SDS011;39172;45.550;12.072;2023-05-31T05:40:38;3.40;;;3.00;;
53287;SDS011;39172;45.550;12.072;2023-05-31T05:46:40;3.00;;;2.47;;
53287;SDS011;39172;45.550;12.072;2023-05-31T05:52:41;2.80;;;2.55;;
53287;SDS011;39172;45.550;12.072;2023-05-31T05:58:42;3.05;;;2.60;;
53287;SDS011;39172;45.550;12.072;2023-05-31T06:04:49;3.70;;;2.67;;
53287;SDS011;39172;45.550;12.072;2023-05-31T06:10:51;3.17;;;2.75;;
53287;SDS011;39172;45.550;12.072;2023-05-31T06:16:51;3.20;;;2.90;;
53287;SDS011;39172;45.550;12.072;2023-05-31T06:22:53;3.40;;;3.03;;
53287;SDS011;39172;45.550;12.072;2023-05-31T06:28:57;4.00;;;3.22;;
53287;SDS011;39172;45.550;12.072;2023-05-31T06:35:19;4.28;;;3.20;;
53287;SDS011;39172;45.550;12.072;2023-05-31T06:41:21;4.07;;;2.90;;
53287;SDS011;39172;45.550;12.072;2023-05-31T06:47:22;3.15;;;2.80;;
53287;SDS011;39172;45.550;12.072;2023-05-31T06:53:59;4.60;;;3.40;;
53287;SDS011;39172;45.550;12.072;2023-05-31T07:00:01;5.85;;;3.50;;
53287;SDS011;39172;45.550;12.072;2023-05-31T07:06:02;3.90;;;3.00;;
53287;SDS011;39172;45.550;12.072;2023-05-31T07:12:04;3.50;;;2.90;;
53287;SDS011;39172;45.550;12.072;2023-05-31T07:18:08;4.00;;;3.25;;
53287;SDS011;39172;45.550;12.072;2023-05-31T07:24:09;3.72;;;3.00;;
53287;SDS011;39172;45.550;12.072;2023-05-31T07:30:10;3.72;;;2.90;;
53287;SDS011;39172;45.550;12.072;2023-05-31T07:36:11;3.85;;;3.15;;
53287;SDS011;39172;45.550;12.072;2023-05-31T07:42:12;4.63;;;3.60;;
53287;SDS011;39172;45.550;12.072;2023-05-31T07:48:13;6.15;;;3.15;;
53287;SDS011;39172;45.550;12.072;2023-05-31T07:54:14;5.65;;;3.42;;
53287;SDS011;39172;45.550;12.072;2023-05-31T08:00:15;4.35;;;3.30;;
53287;SDS011;39172;45.550;12.072;2023-05-31T08:06:16;3.67;;;3.10;;
53287;SDS011;39172;45.550;12.072;2023-05-31T08:12:18;4.82;;;3.20;;
53287;SDS011;39172;45.550;12.072;2023-05-31T08:18:19;4.28;;;3.30;;
53287;SDS011;39172;45.550;12.072;2023-05-31T08:24:19;4.90;;;3.38;;
53287;SDS011;39172;45.550;12.072;2023-05-31T08:30:20;4.10;;;3.30;;
53287;SDS011;39172;45.550;12.072;2023-05-31T08:36:21;4.05;;;3.22;;
53287;SDS011;39172;45.550;12.072;2023-05-31T08:42:25;3.72;;;3.17;;
53287;SDS011;39172;45.550;12.072;2023-05-31T08:48:30;5.00;;;3.63;;
53287;SDS011;39172;45.550;12.072;2023-05-31T08:54:36;5.47;;;3.97;;
53287;SDS011;39172;45.550;12.072;2023-05-31T09:00:37;3.80;;;3.28;;
53287;SDS011;39172;45.550;12.072;2023-05-31T09:06:38;4.30;;;3.30;;
53287;SDS011;39172;45.550;12.072;2023-05-31T09:12:39;5.32;;;3.45;;
53287;SDS011;39172;45.550;12.072;2023-05-31T09:18:40;4.78;;;3.40;;
53287;SDS011;39172;45.550;12.072;2023-05-31T09:24:57;3.78;;;3.38;;
53287;SDS011;39172;45.550;12.072;2023-05-31T09:31:04;5.35;;;3.40;;
53287;SDS011;39172;45.550;12.072;2023-05-31T09:37:06;3.25;;;2.95;;
53287;SDS011;39172;45.550;12.072;2023-05-31T09:43:07;4.18;;;3.40;;
53287;SDS011;39172;45.550;12.072;2023-05-31T09:49:07;4.05;;;3.05;;
53287;SDS011;39172;45.550;12.072;2023-05-31T09:55:10;3.83;;;3.13;;
53287;SDS011;39172;45.550;12.072;2023-05-31T10:01:11;4.07;;;2.90;;
53287;SDS011;39172;45.550;12.072;2023-05-31T10:07:12;3.38;;;2.90;;
53287;SDS011;39172;45.550;12.072;2023-05-31T10:13:13;3.45;;;3.03;;
53287;SDS011;39172;45.550;12.072;2023-05-31T10:19:23;3.72;;;3.10;;
53287;SDS011;39172;45.550;12.072;2023-05-31T10:25:27;5.55;;;3.30;;
53287;SDS011;39172;45.550;12.072;2023-05-31T10:31:30;4.57;;;3.08;;
53287;SDS011;39172;45.550;12.072;2023-05-31T10:37:34;4.60;;;3.20;;
53287;SDS011;39172;45.550;12.072;2023-05-31T10:43:36;4.35;;;3.20;;
53287;SDS011;39172;45.550;12.072;2023-05-31T10:49:38;5.05;;;3.67;;
53287;SDS011;39172;45.550;12.072;2023-05-31T10:55:40;4.07;;;3.42;;
53287;SDS011;39172;45.550;12.072;2023-05-31T11:01:42;3.92;;;3.05;;
53287;SDS011;39172;45.550;12.072;2023-05-31T11:07:45;4.25;;;3.10;;
53287;SDS011;39172;45.550;12.072;2023-05-31T11:19:56;3.97;;;3.42;;
53287;SDS011;39172;45.550;12.072;2023-05-31T11:26:07;3.67;;;3.33;;
53287;SDS011;39172;45.550;12.072;2023-05-31T11:32:07;3.90;;;3.50;;
53287;SDS011;39172;45.550;12.072;2023-05-31T11:38:08;4.38;;;3.75;;
53287;SDS011;39172;45.550;12.072;2023-05-31T11:44:13;4.82;;;3.50;;
53287;SDS011;39172;45.550;12.072;2023-05-31T11:50:15;4.65;;;3.40;;
53287;SDS011;39172;45.550;12.072;2023-05-31T11:56:28;4.53;;;3.72;;
53287;SDS011;39172;45.550;12.072;2023-05-31T12:02:28;3.90;;;3.17;;
53287;SDS011;39172;45.550;12.072;2023-05-31T12:08:29;3.65;;;3.00;;
53287;SDS011;39172;45.550;12.072;2023-05-31T12:14:31;4.38;;;3.60;;
53287;SDS011;39172;45.550;12.072;2023-05-31T12:20:33;4.03;;;3.30;;
53287;SDS011;39172;45.550;12.072;2023-05-31T12:26:37;4.43;;;3.40;;
53287;SDS011;39172;45.550;12.072;2023-05-31T12:32:43;4.43;;;3.40;;
53287;SDS011;39172;45.550;12.072;2023-05-31T12:38:44;6.30;;;3.80;;
53287;SDS011;39172;45.550;12.072;2023-05-31T12:44:45;6.18;;;4.05;;
53287;SDS011;39172;45.550;12.072;2023-05-31T12:50:46;4.65;;;3.88;;
53287;SDS011;39172;45.550;12.072;2023-05-31T12:56:47;4.85;;;3.70;;
53287;SDS011;39172;45.550;12.072;2023-05-31T13:02:47;4.10;;;3.53;;
53287;SDS011;39172;45.550;12.072;2023-05-31T13:08:50;4.78;;;3.33;;
53287;SDS011;39172;45.550;12.072;2023-05-31T13:14:51;4.20;;;3.67;;
53287;SDS011;39172;45.550;12.072;2023-05-31T13:20:53;4.25;;;3.75;;
53287;SDS011;39172;45.550;12.072;2023-05-31T13:26:54;5.90;;;4.10;;
53287;SDS011;39172;45.550;12.072;2023-05-31T13:32:55;4.60;;;3.97;;
53287;SDS011;39172;45.550;12.072;2023-05-31T13:38:55;4.97;;;4.25;;
53287;SDS011;39172;45.550;12.072;2023-05-31T13:44:56;4.93;;;4.00;;
53287;SDS011;39172;45.550;12.072;2023-05-31T13:50:57;6.45;;;4.20;;
53287;SDS011;39172;45.550;12.072;2023-05-31T13:56:58;5.93;;;3.83;;
53287;SDS011;39172;45.550;12.072;2023-05-31T14:03:00;6.03;;;4.20;;
53287;SDS011;39172;45.550;12.072;2023-05-31T14:09:01;5.13;;;4.20;;
53287;SDS011;39172;45.550;12.072;2023-05-31T14:15:02;5.40;;;4.20;;
53287;SDS011;39172;45.550;12.072;2023-05-31T14:21:03;6.13;;;4.13;;
53287;SDS011;39172;45.550;12.072;2023-05-31T14:27:04;4.38;;;3.95;;
53287;SDS011;39172;45.550;12.072;2023-05-31T14:33:06;4.80;;;4.07;;
53287;SDS011;39172;45.550;12.072;2023-05-31T14:39:07;6.18;;;4.05;;
53287;SDS011;39172;45.550;12.072;2023-05-31T14:45:09;4.47;;;3.90;;
53287;SDS011;39172;45.550;12.072;2023-05-31T14:51:10;5.93;;;4.63;;
53287;SDS011;39172;45.550;12.072;2023-05-31T14:57:11;4.70;;;4.10;;
53287;SDS011;39172;45.550;12.072;2023-05-31T15:03:12;6.85;;;4.35;;
53287;SDS011;39172;45.550;12.072;2023-05-31T15:09:13;4.50;;;3.92;;
53287;SDS011;39172;45.550;12.072;2023-05-31T15:15:13;3.58;;;3.25;;
53287;SDS011;39172;45.550;12.072;2023-05-31T15:21:15;4.32;;;3.92;;
53287;SDS011;39172;45.550;12.072;2023-05-31T15:27:16;3.95;;;3.47;;
53287;SDS011;39172;45.550;12.072;2023-05-31T15:33:17;6.03;;;4.22;;
53287;SDS011;39172;45.550;12.072;2023-05-31T15:39:17;4.90;;;3.78;;
53287;SDS011;39172;45.550;12.072;2023-05-31T15:45:19;5.10;;;3.83;;
53287;SDS011;39172;45.550;12.072;2023-05-31T15:51:20;4.18;;;3.60;;
53287;SDS011;39172;45.550;12.072;2023-05-31T15:57:21;4.30;;;3.90;;
53287;SDS011;39172;45.550;12.072;2023-05-31T16:03:22;4.63;;;3.90;;
53287;SDS011;39172;45.550;12.072;2023-05-31T16:09:23;4.85;;;4.10;;
53287;SDS011;39172;45.550;12.072;2023-05-31T16:15:23;5.85;;;4.45;;
53287;SDS011;39172;45.550;12.072;2023-05-31T16:21:24;5.20;;;3.92;;
53287;SDS011;39172;45.550;12.072;2023-05-31T16:27:25;6.28;;;4.15;;
53287;SDS011;39172;45.550;12.072;2023-05-31T16:33:26;5.40;;;3.60;;
53287;SDS011;39172;45.550;12.072;2023-05-31T16:39:27;4.38;;;3.80;;
53287;SDS011;39172;45.550;12.072;2023-05-31T16:45:28;4.28;;;3.30;;
53287;SDS011;39172;45.550;12.072;2023-05-31T16:51:29;3.35;;;3.05;;
53287;SDS011;39172;45.550;12.072;2023-05-31T16:57:31;3.75;;;3.15;;
53287;SDS011;39172;45.550;12.072;2023-05-31T17:03:32;3.60;;;3.22;;
53287;SDS011;39172;45.550;12.072;2023-05-31T17:09:32;3.83;;;3.40;;
53287;SDS011;39172;45.550;12.072;2023-05-31T17:15:33;3.45;;;3.15;;
53287;SDS011;39172;45.550;12.072;2023-05-31T17:21:34;3.30;;;2.90;;
53287;SDS011;39172;45.550;12.072;2023-05-31T17:27:37;3.83;;;3.17;;
53287;SDS011;39172;45.550;12.072;2023-05-31T17:33:38;4.60;;;3.75;;
53287;SDS011;39172;45.550;12.072;2023-05-31T17:39:39;3.65;;;3.25;;
53287;SDS011;39172;45.550;12.072;2023-05-31T17:45:39;4.72;;;3.50;;
53287;SDS011;39172;45.550;12.072;2023-05-31T17:51:40;3.50;;;3.10;;
53287;SDS011;39172;45.550;12.072;2023-05-31T17:57:41;4.38;;;3.38;;
53287;SDS011;39172;45.550;12.072;2023-05-31T18:03:44;4.43;;;3.30;;
53287;SDS011;39172;45.550;12.072;2023-05-31T18:09:45;4.45;;;3.03;;
53287;SDS011;39172;45.550;12.072;2023-05-31T18:15:46;3.78;;;3.22;;
53287;SDS011;39172;45.550;12.072;2023-05-31T18:21:46;3.45;;;3.15;;
53287;SDS011;39172;45.550;12.072;2023-05-31T18:27:47;3.33;;;3.03;;
53287;SDS011;39172;45.550;12.072;2023-05-31T18:33:48;3.45;;;3.03;;
53287;SDS011;39172;45.550;12.072;2023-05-31T18:39:49;3.35;;;2.90;;
53287;SDS011;39172;45.550;12.072;2023-05-31T18:45:50;3.45;;;2.90;;
53287;SDS011;39172;45.550;12.072;2023-05-31T18:51:51;3.70;;;3.30;;
53287;SDS011;39172;45.550;12.072;2023-05-31T18:57:52;3.35;;;2.78;;
53287;SDS011;39172;45.550;12.072;2023-05-31T19:03:53;3.35;;;3.05;;
53287;SDS011;39172;45.550;12.072;2023-05-31T19:09:53;3.35;;;3.00;;
53287;SDS011;39172;45.550;12.072;2023-05-31T19:15:54;3.75;;;2.85;;
53287;SDS011;39172;45.550;12.072;2023-05-31T19:21:55;3.22;;;2.55;;
53287;SDS011;39172;45.550;12.072;2023-05-31T19:27:56;3.60;;;2.65;;
53287;SDS011;39172;45.550;12.072;2023-05-31T19:33:57;3.38;;;2.97;;
53287;SDS011;39172;45.550;12.072;2023-05-31T19:39:58;4.00;;;3.30;;
53287;SDS011;39172;45.550;12.072;2023-05-31T19:45:58;3.50;;;2.95;;
53287;SDS011;39172;45.550;12.072;2023-05-31T19:51:59;3.95;;;3.40;;
53287;SDS011;39172;45.550;12.072;2023-05-31T19:58:00;4.80;;;3.70;;
53287;SDS011;39172;45.550;12.072;2023-05-31T20:04:01;4.18;;;3.58;;
53287;SDS011;39172;45.550;12.072;2023-05-31T20:10:02;4.65;;;3.92;;
53287;SDS011;39172;45.550;12.072;2023-05-31T20:16:03;4.30;;;3.63;;
53287;SDS011;39172;45.550;12.072;2023-05-31T20:22:04;4.43;;;4.03;;
53287;SDS011;39172;45.550;12.072;2023-05-31T20:28:08;4.82;;;3.92;;
53287;SDS011;39172;45.550;12.072;2023-05-31T20:34:09;4.30;;;3.60;;
53287;SDS011;39172;45.550;12.072;2023-05-31T20:40:10;3.90;;;3.50;;
53287;SDS011;39172;45.550;12.072;2023-05-31T20:46:10;3.92;;;3.53;;
53287;SDS011;39172;45.550;12.072;2023-05-31T20:52:12;4.57;;;3.90;;
53287;SDS011;39172;45.550;12.072;2023-05-31T20:58:13;4.95;;;4.20;;
53287;SDS011;39172;45.550;12.072;2023-05-31T21:04:14;4.45;;;3.88;;
53287;SDS011;39172;45.550;12.072;2023-05-31T21:10:14;4.80;;;4.32;;
53287;SDS011;39172;45.550;12.072;2023-05-31T21:16:15;4.40;;;4.00;;
53287;SDS011;39172;45.550;12.072;2023-05-31T21:22:16;3.72;;;3.30;;
53287;SDS011;39172;45.550;12.072;2023-05-31T21:28:17;3.75;;;3.30;;
53287;SDS011;39172;45.550;12.072;2023-05-31T21:34:20;3.40;;;3.10;;
53287;SDS011;39172;45.550;12.072;2023-05-31T21:40:21;3.60;;;3.10;;
53287;SDS011;39172;45.550;12.072;2023-05-31T21:46:23;4.88;;;3.40;;
53287;SDS011;39172;45.550;12.072;2023-05-31T21:52:24;4.45;;;4.00;;
53287;SDS011;39172;45.550;12.072;2023-05-31T21:58:31;5.97;;;4.22;;
53287;SDS011;39172;45.550;12.072;2023-05-31T22:04:32;4.43;;;3.88;;
53287;SDS011;39172;45.550;12.072;2023-05-31T22:10:33;3.80;;;3.40;;
53287;SDS011;39172;45.550;12.072;2023-05-31T22:16:34;4.50;;;3.85;;
53287;SDS011;39172;45.550;12.072;2023-05-31T22:22:35;4.57;;;4.10;;
53287;SDS011;39172;45.550;12.072;2023-05-31T22:28:37;4.55;;;3.80;;
53287;SDS011;39172;45.550;12.072;2023-05-31T22:34:38;5.03;;;3.97;;
53287;SDS011;39172;45.550;12.072;2023-05-31T22:40:39;4.78;;;4.38;;
53287;SDS011;39172;45.550;12.072;2023-05-31T22:46:40;5.05;;;4.00;;
53287;SDS011;39172;45.550;12.072;2023-05-31T22:52:41;4.05;;;3.65;;
53287;SDS011;39172;45.550;12.072;2023-05-31T22:58:45;4.38;;;3.97;;
53287;SDS011;39172;45.550;12.072;2023-05-31T23:04:46;4.70;;;4.13;;
53287;SDS011;39172;45.550;12.072;2023-05-31T23:10:47;4.70;;;4.20;;
53287;SDS011;39172;45.550;12.072;2023-05-31T23:16:48;4.65;;;3.90;;
53287;SDS011;39172;45.550;12.072;2023-05-31T23:22:49;4.78;;;4.32;;
53287;SDS011;39172;45.550;12.072;2023-05-31T23:28:50;3.95;;;3.58;;
53287;SDS011;39172;45.550;12.072;2023-05-31T23:34:51;3.80;;;3.40;;
53287;SDS011;39172;45.550;12.072;2023-05-31T23:40:52;3.58;;;3.20;;
53287;SDS011;39172;45.550;12.072;2023-05-31T23:46:53;4.78;;;3.70;;
53287;SDS011;39172;45.550;12.072;2023-05-31T23:52:54;3.85;;;3.33;;
53287;SDS011;39172;45.550;12.072;2023-05-31T23:58:56;4.53;;;2.90;;
